Time;durP1;ratioP1;P1;durP2;ratioP2;P2;SDS_P1;SDS_P2;PMS_P1;PMS_P2;Temp;Humidity;BMP_temperature;BMP_pressure;BME280_temperature;BME280_humidity;BME280_pressure;Samples;Min_cycle;Max_cycle;Signal;HPM_P1;HPM_P2
2023/03/26 00:03:03;;;;;;;2.67;2.47;;;;;;;10.10;48.75;99156.03;10413510;28;20746;-73
2023/03/26 00:08:10;;;;;;;4.00;2.20;;;;;;;10.40;48.70;99225.31;10422537;28;20227;-73
2023/03/26 00:13:11;;;;;;;6.20;2.73;;;;;;;13.40;43.92;99208.41;10418007;28;20230;-71
2023/03/26 00:18:14;;;;;;;4.23;2.40;;;;;;;14.20;42.65;99250.81;10422517;28;20204;-72
2023/03/26 00:23:16;;;;;;;4.83;2.87;;;;;;;14.81;41.24;99240.22;10406494;28;20503;-72
2023/03/26 00:28:21;;;;;;;5.23;2.70;;;;;;;15.64;40.12;99241.41;10427020;28;20242;-71
2023/03/26 00:33:23;;;;;;;7.60;3.07;;;;;;;15.50;40.16;99213.81;10419485;28;20234;-72
2023/03/26 00:38:26;;;;;;;6.97;3.20;;;;;;;14.89;40.94;99213.84;10417542;28;20208;-72
2023/03/26 00:43:31;;;;;;;5.97;2.80;;;;;;;13.10;43.09;99153.38;10418128;28;20224;-75
2023/03/26 00:48:33;;;;;;;4.80;2.93;;;;;;;14.59;41.73;99174.22;10422750;28;20208;-71
2023/03/26 00:53:47;;;;;;;6.07;3.00;;;;;;;15.03;41.18;99182.16;10422550;28;20220;-72
2023/03/26 00:58:49;;;;;;;6.73;3.30;;;;;;;15.07;40.66;99167.19;10421000;28;20223;-72
2023/03/26 01:03:57;;;;;;;6.17;2.73;;;;;;;13.99;42.63;99174.81;10423036;28;20811;-72
2023/03/26 01:09:15;;;;;;;4.27;2.60;;;;;;;13.37;42.37;99152.41;10409089;28;20210;-71
2023/03/26 01:14:22;;;;;;;6.00;3.13;;;;;;;14.03;41.33;99140.22;10427276;28;20237;-70
2023/03/26 01:19:24;;;;;;;7.07;3.73;;;;;;;13.93;42.44;99156.88;10423488;28;20761;-70
2023/03/26 01:24:26;;;;;;;8.37;3.53;;;;;;;14.85;41.03;99156.09;10419288;28;20504;-72
2023/03/26 01:29:27;;;;;;;6.67;3.20;;;;;;;14.58;41.49;99150.19;10421930;28;20204;-72
2023/03/26 01:34:48;;;;;;;3.53;3.00;;;;;;;13.70;42.51;99113.66;10425842;28;20620;-72
2023/03/26 01:39:56;;;;;;;4.77;3.33;;;;;;;11.68;45.56;99046.03;10429787;28;20219;-71
2023/03/26 01:45:14;;;;;;;6.73;2.80;;;;;;;11.52;46.58;99071.34;10420952;28;20235;-70
2023/03/26 01:50:16;;;;;;;4.07;2.57;;;;;;;13.75;43.71;99060.88;10431640;28;20290;-74
2023/03/26 01:55:18;;;;;;;5.93;3.20;;;;;;;14.64;41.62;99038.88;10419355;28;20598;-76
2023/03/26 02:00:34;;;;;;;7.20;3.10;;;;;;;14.64;41.54;99032.69;10418868;28;20212;-76
2023/03/26 02:05:42;;;;;;;6.90;2.80;;;;;;;12.65;44.33;99069.38;10427197;28;20294;-72
2023/03/26 02:10:47;;;;;;;6.57;3.07;;;;;;;13.32;43.79;99039.38;10405344;28;20399;-74
2023/03/26 02:16:00;;;;;;;7.40;3.03;;;;;;;14.52;41.40;98987.69;10423136;28;20540;-75
2023/03/26 02:21:08;;;;;;;5.70;3.20;;;;;;;10.98;47.53;98909.09;10418424;28;20207;-74
2023/03/26 02:26:10;;;;;;;4.77;3.20;;;;;;;12.80;44.48;99040.38;10422240;28;20242;-75
2023/03/26 02:31:12;;;;;;;6.17;3.33;;;;;;;14.25;41.29;98951.47;10421607;28;20200;-74
2023/03/26 02:36:18;;;;;;;5.77;3.10;;;;;;;14.06;42.21;99009.84;10422408;28;20228;-74
2023/03/26 02:41:20;;;;;;;7.90;3.07;;;;;;;11.30;47.17;98936.03;10437932;28;20293;-74
2023/03/26 02:46:22;;;;;;;4.50;2.60;;;;;;;12.47;45.78;98997.63;10415296;28;20255;-74
2023/03/26 02:51:24;;;;;;;6.43;3.17;;;;;;;13.72;43.14;98948.41;10385625;28;20841;-72
2023/03/26 02:56:26;;;;;;;3.57;2.30;;;;;;;13.29;43.59;98951.97;10408671;28;20228;-72
2023/03/26 03:01:29;;;;;;;4.70;2.80;;;;;;;14.97;41.55;98926.34;10402628;28;20774;-73
2023/03/26 03:06:31;;;;;;;5.27;2.53;;;;;;;14.25;41.88;98908.41;10415229;28;20263;-73
2023/03/26 03:11:34;;;;;;;5.33;3.00;;;;;;;13.96;41.88;98898.22;10408235;28;20212;-73
2023/03/26 03:16:36;;;;;;;5.40;2.67;;;;;;;12.92;43.91;98907.06;10400989;28;20476;-73
2023/03/26 03:21:38;;;;;;;3.73;2.70;;;;;;;14.13;41.96;98909.19;10411532;28;20207;-73
2023/03/26 03:26:41;;;;;;;5.83;3.00;;;;;;;13.63;43.10;98917.47;10418540;28;20234;-74
2023/03/26 03:31:42;;;;;;;5.30;2.80;;;;;;;13.51;43.62;98916.59;10421980;28;20326;-74
2023/03/26 03:36:47;;;;;;;3.77;2.77;;;;;;;15.72;40.67;98882.38;10429448;28;20753;-77
2023/03/26 03:41:49;;;;;;;4.53;2.97;;;;;;;14.19;42.73;98889.44;10420378;28;20207;-71
2023/03/26 03:46:54;;;;;;;4.33;2.60;;;;;;;13.93;42.29;98855.66;10425551;28;20639;-71
2023/03/26 03:51:56;;;;;;;3.37;2.53;;;;;;;13.18;43.71;98856.00;10414423;28;20211;-71
2023/03/26 03:56:58;;;;;;;6.33;2.40;;;;;;;14.37;42.88;98810.53;10428611;28;20223;-71
2023/03/26 04:01:59;;;;;;;9.97;3.30;;;;;;;12.91;44.37;98827.56;10422979;28;20607;-72
2023/03/26 04:07:01;;;;;;;5.03;2.80;;;;;;;12.76;44.92;98810.19;10420132;28;20591;-71
2023/03/26 04:12:03;;;;;;;3.47;2.37;;;;;;;14.18;42.61;98774.81;10423450;28;20227;-71
2023/03/26 04:17:05;;;;;;;4.07;2.70;;;;;;;14.47;42.59;98777.63;10428919;28;20731;-71
2023/03/26 04:22:06;;;;;;;4.33;2.80;;;;;;;13.10;45.03;98803.38;10428876;28;20685;-71
2023/03/26 04:27:19;;;;;;;10.57;5.30;;;;;;;11.20;47.52;98668.69;10423266;28;20836;-71
2023/03/26 04:32:29;;;;;;;6.17;3.00;;;;;;;11.19;48.25;98694.66;10397829;28;20197;-73
2023/03/26 04:37:34;;;;;;;5.60;3.30;;;;;;;11.23;47.16;98711.91;10426723;28;20227;-70
2023/03/26 04:42:40;;;;;;;5.93;2.93;;;;;;;11.90;46.37;98770.44;10417774;28;20211;-70
2023/03/26 04:47:42;;;;;;;7.87;3.03;;;;;;;12.58;45.43;98738.50;10421606;28;20332;-72
2023/03/26 04:52:44;;;;;;;3.00;2.70;;;;;;;12.42;46.46;98748.75;10422354;28;20220;-71
2023/03/26 04:57:52;;;;;;;5.30;3.10;;;;;;;13.65;44.32;98693.09;10405107;28;20491;-70
2023/03/26 05:02:56;;;;;;;6.20;3.20;;;;;;;11.22;47.88;98699.56;10416549;28;20248;-71
2023/03/26 05:07:58;;;;;;;6.70;2.60;;;;;;;11.99;46.28;98730.78;10421786;28;20220;-70
2023/03/26 05:13:00;;;;;;;9.10;2.90;;;;;;;11.44;46.79;98667.91;10421286;28;20618;-73
2023/03/26 05:18:01;;;;;;;6.10;3.57;;;;;;;12.34;45.79;98716.84;10423130;28;20215;-72
2023/03/26 05:23:03;;;;;;;6.37;2.93;;;;;;;12.47;45.92;98670.28;10421033;28;20282;-70
2023/03/26 05:28:05;;;;;;;7.47;3.30;;;;;;;13.98;43.49;98631.75;10419369;28;20255;-73
2023/03/26 05:33:07;;;;;;;7.60;2.80;;;;;;;14.07;43.25;98646.50;10428153;28;20231;-70
2023/03/26 05:38:08;;;;;;;6.97;3.50;;;;;;;15.11;41.96;98604.41;10425809;28;20614;-71
2023/03/26 05:43:10;;;;;;;7.53;3.57;;;;;;;11.37;48.01;98588.63;10403190;28;20738;-71
2023/03/26 05:48:37;;;;;;;5.47;3.50;;;;;;;12.53;45.47;98629.97;10415376;28;20227;-70
2023/03/26 05:53:39;;;;;;;5.10;3.63;;;;;;;14.53;43.09;98588.25;10406004;28;20233;-70
2023/03/26 05:58:42;;;;;;;8.50;3.13;;;;;;;12.55;45.28;98605.59;10412523;28;20205;-70
2023/03/26 06:03:45;;;;;;;6.13;3.63;;;;;;;13.52;44.10;98630.69;10409435;28;20271;-71
2023/03/26 06:08:49;;;;;;;8.00;3.20;;;;;;;12.93;44.32;98601.78;10411850;28;20231;-70
2023/03/26 06:14:03;;;;;;;18.80;11.23;;;;;;;13.50;43.55;98605.91;10412409;28;20232;-70
2023/03/26 06:19:05;;;;;;;13.63;9.47;;;;;;;13.27;45.19;98632.47;10410380;28;20204;-72
2023/03/26 06:24:07;;;;;;;12.13;7.73;;;;;;;15.03;42.54;98537.47;10410289;28;20235;-70
2023/03/26 06:29:33;;;;;;;11.23;5.77;;;;;;;13.10;45.39;98585.84;10412529;28;20199;-70
2023/03/26 06:34:35;;;;;;;8.57;4.53;;;;;;;14.38;43.85;98575.31;10405775;28;20714;-69
2023/03/26 06:39:37;;;;;;;7.10;4.33;;;;;;;15.61;42.42;98563.19;10406758;28;20851;-69
2023/03/26 06:44:39;;;;;;;6.43;4.40;;;;;;;14.35;42.76;98516.59;10410375;28;21171;-70
2023/03/26 06:49:41;;;;;;;9.27;3.87;;;;;;;15.13;43.39;98537.63;10411164;28;20200;-70
2023/03/26 06:54:45;;;;;;;7.37;3.10;;;;;;;13.53;44.97;98551.69;10407660;28;20322;-71
2023/03/26 06:59:47;;;;;;;7.63;3.57;;;;;;;12.59;47.71;98552.28;10408458;28;20208;-71
2023/03/26 07:04:50;;;;;;;9.33;6.17;;;;;;;13.46;46.57;98544.56;10403841;28;20465;-70
2023/03/26 07:09:51;;;;;;;15.47;10.07;;;;;;;14.45;45.13;98528.63;10386604;28;20451;-72
2023/03/26 07:14:55;;;;;;;11.57;7.17;;;;;;;13.84;45.82;98488.66;10409522;28;20397;-69
2023/03/26 07:20:00;;;;;;;7.00;4.00;;;;;;;14.44;44.62;98473.94;10391475;28;20212;-72
2023/03/26 07:25:03;;;;;;;5.13;3.10;;;;;;;13.42;47.65;98492.34;10419231;28;20224;-70
2023/03/26 07:30:14;;;;;;;7.73;3.40;;;;;;;12.58;48.08;98454.88;10415317;28;20238;-71
2023/03/26 07:35:34;;;;;;;8.90;4.47;;;;;;;11.78;50.51;98432.66;10414383;28;20249;-69
2023/03/26 07:41:15;;;;;;;10.13;6.87;;;;;;;13.30;47.94;98445.88;10418426;28;20319;-72
2023/03/26 07:46:24;;;;;;;11.60;7.23;;;;;;;13.96;46.24;98437.53;10383574;28;20594;-72
2023/03/26 07:51:27;;;;;;;11.10;6.57;;;;;;;11.07;50.46;98292.94;10401070;28;20369;-69
2023/03/26 07:56:47;;;;;;;13.90;6.87;;;;;;;12.72;49.20;98471.59;10414925;28;20264;-69
2023/03/26 08:02:17;;;;;;;9.53;5.97;;;;;;;9.68;53.99;98207.59;10410200;28;20227;-71
2023/03/26 08:07:28;;;;;;;9.83;5.60;;;;;;;11.51;52.66;98480.34;10415833;28;22281;-70
2023/03/26 08:12:42;;;;;;;10.33;5.23;;;;;;;12.62;49.42;98476.69;10413844;28;20409;-70
2023/03/26 08:17:52;;;;;;;11.80;7.57;;;;;;;10.66;53.21;98401.41;10414719;28;20219;-70
2023/03/26 08:23:04;;;;;;;8.50;5.23;;;;;;;9.59;55.78;98351.28;10421432;28;20308;-72
2023/03/26 08:28:33;;;;;;;10.60;5.40;;;;;;;11.67;51.87;98508.41;10413460;28;20224;-70
2023/03/26 08:33:35;;;;;;;7.23;4.57;;;;;;;12.33;50.71;98496.09;10413540;28;20233;-70
2023/03/26 08:38:38;;;;;;;6.60;5.57;;;;;;;10.86;53.40;98437.91;10413546;28;20203;-70
2023/03/26 08:44:18;;;;;;;6.40;4.27;;;;;;;10.85;54.21;98474.56;10417199;28;20812;-70
2023/03/26 08:49:37;;;;;;;6.43;4.00;;;;;;;11.12;54.17;98489.56;10412546;28;20236;-70
2023/03/26 08:55:03;;;;;;;8.17;3.73;;;;;;;9.93;55.31;98415.25;10412214;28;20266;-69
2023/03/26 09:00:20;;;;;;;7.80;3.70;;;;;;;11.36;53.13;98488.72;10410601;28;20204;-70
2023/03/26 09:05:51;;;;;;;7.30;3.70;;;;;;;12.00;52.64;98467.81;10410932;28;20235;-72
2023/03/26 09:11:18;;;;;;;6.57;3.50;;;;;;;12.70;51.09;98452.22;10414846;28;20335;-72
2023/03/26 09:16:33;;;;;;;6.27;3.80;;;;;;;10.76;54.10;98422.31;10416373;28;20235;-72
2023/03/26 09:22:07;;;;;;;7.00;3.93;;;;;;;11.95;53.30;98486.44;10414278;28;20211;-70
2023/03/26 09:27:31;;;;;;;5.97;3.60;;;;;;;11.95;52.20;98466.88;10411725;28;20254;-73
2023/03/26 09:32:56;;;;;;;5.37;3.33;;;;;;;13.15;51.26;98470.47;10410153;28;20203;-72
2023/03/26 09:38:01;;;;;;;4.43;3.50;;;;;;;13.19;51.16;98455.50;10410859;28;20850;-72
2023/03/26 09:43:36;;;;;;;4.60;2.60;;;;;;;11.80;52.51;98488.69;10390178;28;20224;-70
2023/03/26 09:49:16;;;;;;;5.03;2.87;;;;;;;12.85;50.22;98452.59;10389166;28;20910;-72
2023/03/26 09:54:43;;;;;;;5.10;3.07;;;;;;;12.86;49.66;98445.38;10417816;28;20299;-69
2023/03/26 09:59:51;;;;;;;3.57;2.50;;;;;;;12.31;48.87;98482.06;10414675;28;20204;-70
2023/03/26 10:05:19;;;;;;;3.93;2.60;;;;;;;12.38;48.09;98484.66;10408432;28;20247;-72
2023/03/26 10:10:58;;;;;;;2.73;2.30;;;;;;;12.95;47.34;98470.00;10411035;28;20218;-71
2023/03/26 10:16:09;;;;;;;3.57;2.47;;;;;;;14.45;45.32;98502.50;10410658;28;21091;-70
2023/03/26 10:21:45;;;;;;;3.07;2.10;;;;;;;13.26;44.74;98503.75;10408624;28;20200;-68
2023/03/26 10:26:59;;;;;;;3.60;2.40;;;;;;;12.95;43.75;98467.31;10392078;28;20243;-72
2023/03/26 10:32:48;;;;;;;2.67;2.20;;;;;;;12.41;44.65;98535.16;10408579;28;20223;-70
2023/03/26 10:38:28;;;;;;;8.27;2.50;;;;;;;12.54;43.30;98523.47;10403082;28;20254;-71
2023/03/26 10:44:08;;;;;;;2.37;2.17;;;;;;;12.29;42.50;98502.13;10350044;28;20223;-71
2023/03/26 10:49:22;;;;;;;2.60;1.80;;;;;;;11.94;42.49;98524.19;10255060;28;20947;-71
2023/03/26 10:55:21;;;;;;;2.43;1.70;;;;;;;10.88;42.96;98489.34;10404348;28;20738;-71
2023/03/26 11:06:49;;;;;;;2.20;2.00;;;;;;;9.73;45.27;98540.88;10453247;27;20760;-73
2023/03/26 11:12:17;;;;;;;3.53;2.17;;;;;;;10.93;43.71;98626.00;10399247;28;20239;-75
2023/03/26 11:17:41;;;;;;;3.87;2.13;;;;;;;11.83;44.01;98598.16;10415429;28;20242;-68
2023/03/26 11:22:53;;;;;;;3.00;1.90;;;;;;;11.31;43.73;98625.16;10416869;28;20725;-69
2023/03/26 11:28:18;;;;;;;2.40;1.87;;;;;;;12.03;42.67;98587.22;10412943;28;20234;-71
2023/03/26 11:33:38;;;;;;;3.97;1.90;;;;;;;11.39;43.57;98598.09;10409272;28;20224;-66
2023/03/26 11:38:50;;;;;;;2.93;1.97;;;;;;;12.09;43.51;98586.31;10415658;28;20743;-74
2023/03/26 11:44:07;;;;;;;2.87;2.27;;;;;;;11.56;43.35;98557.38;10413328;28;20243;-73
2023/03/26 11:49:15;;;;;;;2.90;1.80;;;;;;;11.81;43.44;98570.72;10414111;28;20232;-70
2023/03/26 11:54:19;;;;;;;4.33;2.00;;;;;;;12.85;42.71;98557.28;10410983;28;20262;-70
2023/03/26 11:59:42;;;;;;;3.53;1.90;;;;;;;13.08;42.13;98543.09;10410486;28;20228;-72
2023/03/26 12:05:19;;;;;;;4.20;2.30;;;;;;;13.11;41.92;98547.19;10408957;28;20235;-72
2023/03/26 12:10:30;;;;;;;2.20;1.90;;;;;;;12.41;41.00;98520.94;10410170;28;20243;-64
2023/03/26 12:15:32;;;;;;;6.57;2.60;;;;;;;13.64;41.59;98530.19;10392704;28;20331;-72
2023/03/26 12:20:35;;;;;;;4.13;2.07;;;;;;;13.21;40.73;98527.81;10379790;28;20229;-69
2023/03/26 12:25:38;;;;;;;3.93;2.13;;;;;;;13.51;41.20;98533.09;10383902;28;20244;-71
2023/03/26 12:30:50;;;;;;;4.00;2.10;;;;;;;12.86;40.83;98523.22;10379582;28;20225;-68
2023/03/26 12:35:56;;;;;;;5.27;2.33;;;;;;;14.39;39.78;98546.53;10377677;28;20259;-69
2023/03/26 12:41:07;;;;;;;2.33;1.97;;;;;;;13.03;40.32;98515.31;10376987;28;20237;-69
2023/03/26 12:46:32;;;;;;;3.43;2.07;;;;;;;12.96;40.30;98507.38;10380798;28;20746;-75
2023/03/26 12:52:04;;;;;;;3.17;1.67;;;;;;;12.34;39.68;98476.25;10383071;28;20622;-73
2023/03/26 12:57:31;;;;;;;3.70;2.23;;;;;;;12.48;40.40;98502.91;10366189;28;20260;-76
2023/03/26 13:03:00;;;;;;;4.33;2.67;;;;;;;14.07;40.71;98481.59;10384261;28;20245;-74
2023/03/26 13:08:25;;;;;;;5.70;2.30;;;;;;;12.65;43.22;98466.31;10386706;28;20221;-66
2023/03/26 13:13:32;;;;;;;3.97;1.97;;;;;;;13.47;41.72;98435.22;10384488;28;20731;-66
2023/03/26 13:18:52;;;;;;;3.77;2.43;;;;;;;13.57;42.17;98418.50;10383144;28;20692;-69
2023/03/26 13:24:29;;;;;;;5.83;2.57;;;;;;;13.00;40.07;98451.31;10381442;28;20542;-68
2023/03/26 13:30:02;;;;;;;4.83;2.50;;;;;;;11.96;41.15;98442.53;10371859;28;20235;-67
2023/03/26 13:35:09;;;;;;;2.10;1.90;;;;;;;10.24;43.73;98334.28;10372450;28;20316;-71
2023/03/26 13:40:19;;;;;;;2.57;1.80;;;;;;;9.63;46.46;98332.97;10376806;28;20232;-72
2023/03/26 13:45:51;;;;;;;3.73;2.33;;;;;;;10.06;47.56;98441.09;10372516;28;20742;-75
2023/03/26 13:51:18;;;;;;;4.73;2.40;;;;;;;8.40;52.67;98265.19;10376244;28;20233;-69
2023/03/26 13:56:26;;;;;;;4.30;2.00;;;;;;;7.91;55.33;98339.19;10377791;28;20232;-69
2023/03/26 14:01:35;;;;;;;3.40;2.30;;;;;;;8.14;54.77;98390.47;10377998;28;22103;-67
2023/03/26 14:06:46;;;;;;;4.90;2.33;;;;;;;7.10;56.40;98325.78;10376786;28;20613;-68
2023/03/26 14:11:50;;;;;;;5.37;2.40;;;;;;;8.56;55.01;98485.25;10380737;28;20240;-69
2023/03/26 14:17:05;;;;;;;6.40;2.90;;;;;;;9.35;52.73;98523.69;10392483;28;20730;-70
2023/03/26 14:28:37;;;;;;;3.30;3.00;;;;;;;10.94;51.21;98482.31;10428355;28;20322;-75
2023/03/26 14:33:52;;;;;;;3.47;3.03;;;;;;;9.07;53.98;98483.88;10388187;28;20235;-73
2023/03/26 14:39:13;;;;;;;3.20;2.73;;;;;;;9.79;53.05;98526.69;10434417;28;20585;-72
2023/03/26 14:44:35;;;;;;;5.07;2.57;;;;;;;10.17;52.07;98515.25;10420831;28;20235;-69
2023/03/26 14:50:11;;;;;;;4.37;2.80;;;;;;;9.99;53.31;98507.09;10418376;28;20229;-73
2023/03/26 14:55:30;;;;;;;3.90;2.67;;;;;;;10.12;52.88;98520.41;10425795;28;20234;-72
2023/03/26 15:00:50;;;;;;;2.80;2.60;;;;;;;10.34;51.40;98507.56;10416405;28;20232;-71
2023/03/26 15:06:16;;;;;;;4.47;3.10;;;;;;;10.80;49.57;98482.41;10450879;28;20664;-69
2023/03/26 15:11:44;;;;;;;2.33;2.13;;;;;;;11.09;49.56;98490.00;10464287;28;20230;-73
2023/03/26 15:17:16;;;;;;;2.97;2.50;;;;;;;10.23;49.95;98518.94;10457663;28;20235;-69
2023/03/26 15:22:33;;;;;;;4.17;2.50;;;;;;;10.55;49.99;98541.19;10456581;28;20250;-68
2023/03/26 15:27:56;;;;;;;3.63;2.47;;;;;;;10.04;51.90;98563.41;10465366;28;20245;-69
2023/03/26 15:33:16;;;;;;;2.30;2.10;;;;;;;9.56;53.62;98551.19;10420108;28;20224;-74
2023/03/26 15:38:48;;;;;;;2.10;2.00;;;;;;;10.12;52.35;98539.97;10456388;28;20664;-71
2023/03/26 15:43:53;;;;;;;2.40;2.30;;;;;;;10.18;52.34;98540.16;10460078;28;20776;-71
2023/03/26 15:49:23;;;;;;;2.10;2.00;;;;;;;7.86;56.19;98367.44;10460610;28;20228;-71
2023/03/26 15:54:35;;;;;;;2.27;2.17;;;;;;;8.40;53.96;98446.44;10477824;28;20705;-74
2023/03/26 16:00:00;;;;;;;1.93;1.83;;;;;;;9.33;53.48;98540.91;10472974;28;20242;-73
2023/03/26 16:05:18;;;;;;;2.57;2.37;;;;;;;10.16;51.21;98559.06;10463878;28;20242;-74
2023/03/26 16:10:37;;;;;;;2.40;2.20;;;;;;;11.04;50.43;98531.63;10470669;28;20261;-73
2023/03/26 16:15:39;;;;;;;3.10;2.10;;;;;;;9.65;52.86;98597.19;10476168;28;20239;-71
2023/03/26 16:20:55;;;;;;;2.53;2.30;;;;;;;10.64;51.12;98581.88;10453276;28;20235;-69
2023/03/26 16:26:17;;;;;;;2.50;2.40;;;;;;;10.75;51.09;98586.59;10467094;28;20627;-72
2023/03/26 16:31:23;;;;;;;2.03;1.90;;;;;;;11.31;50.18;98581.47;10471081;28;20227;-71
2023/03/26 16:36:43;;;;;;;3.00;2.10;;;;;;;11.39;50.11;98595.41;10463833;28;20597;-73
2023/03/26 16:42:00;;;;;;;3.40;2.20;;;;;;;10.31;52.12;98641.72;10467838;28;20246;-73
2023/03/26 16:47:20;;;;;;;2.30;2.20;;;;;;;10.68;50.80;98628.56;10473996;28;20288;-73
2023/03/26 16:52:29;;;;;;;1.97;1.87;;;;;;;10.48;51.20;98623.34;10451357;28;20760;-73
2023/03/26 16:58:27;;;;;;;2.13;2.03;;;;;;;10.82;51.03;98607.97;10478108;28;20250;-71
2023/03/26 17:03:50;;;;;;;2.47;2.30;;;;;;;10.80;50.18;98618.03;10469568;28;20318;-73
2023/03/26 17:09:00;;;;;;;2.90;2.70;;;;;;;11.71;49.18;98654.34;10469192;28;20269;-71
2023/03/26 17:14:02;;;;;;;2.67;2.27;;;;;;;12.25;47.98;98672.56;10469990;28;20560;-71
2023/03/26 17:19:31;;;;;;;4.97;3.53;;;;;;;10.58;50.64;98666.50;10446612;28;20238;-71
2023/03/26 17:24:42;;;;;;;4.83;2.90;;;;;;;11.75;48.20;98627.91;10466657;28;20235;-71
2023/03/26 17:30:06;;;;;;;2.30;2.10;;;;;;;9.61;52.86;98633.34;10459206;28;20231;-72
2023/03/26 17:35:08;;;;;;;2.90;2.70;;;;;;;9.61;52.85;98639.50;10466678;28;20249;-70
2023/03/26 17:40:42;;;;;;;3.23;2.30;;;;;;;9.62;53.43;98659.88;10474925;28;20243;-72
2023/03/26 17:45:45;;;;;;;2.40;2.20;;;;;;;11.07;49.93;98619.53;10447080;28;20265;-70
2023/03/26 17:51:39;;;;;;;2.53;2.33;;;;;;;9.51;53.12;98626.56;10469282;28;20333;-72
2023/03/26 17:56:41;;;;;;;3.07;2.80;;;;;;;9.43;52.64;98620.63;10468746;28;20661;-70
2023/03/26 18:01:45;;;;;;;4.57;3.67;;;;;;;11.35;49.29;98647.75;10465894;28;20784;-69
2023/03/26 18:06:55;;;;;;;2.97;2.60;;;;;;;10.57;50.16;98670.19;10460206;28;20234;-71
2023/03/26 18:12:23;;;;;;;3.83;3.03;;;;;;;10.08;50.69;98680.41;10464548;28;20249;-71
2023/03/26 18:17:25;;;;;;;3.30;3.00;;;;;;;10.23;49.99;98656.09;10467824;28;20890;-73
2023/03/26 18:22:29;;;;;;;3.60;2.90;;;;;;;9.44;50.86;98670.34;10469740;28;20227;-74
2023/03/26 18:27:39;;;;;;;2.63;2.43;;;;;;;9.57;51.28;98692.53;10463891;28;20224;-73
2023/03/26 18:33:10;;;;;;;2.30;2.10;;;;;;;9.78;51.34;98709.38;10465362;28;20226;-64
2023/03/26 18:38:20;;;;;;;1.93;1.83;;;;;;;8.40;53.58;98574.41;10469333;28;20238;-71
2023/03/26 18:43:39;;;;;;;2.10;2.00;;;;;;;6.76;55.08;98368.13;10467441;28;20238;-70
2023/03/26 18:48:45;;;;;;;2.37;2.23;;;;;;;9.63;51.33;98668.69;10465602;28;20306;-75
2023/03/26 18:53:55;;;;;;;6.87;2.63;;;;;;;10.35;50.85;98672.31;10456363;28;20269;-76
2023/03/26 18:58:58;;;;;;;2.63;1.80;;;;;;;7.23;55.71;98490.81;10463570;28;20324;-77
2023/03/26 19:04:04;;;;;;;2.50;2.30;;;;;;;10.41;50.17;98676.00;10471986;28;20232;-74
2023/03/26 19:09:12;;;;;;;2.00;1.90;;;;;;;9.52;51.43;98724.34;10464857;28;20219;-74
2023/03/26 19:14:35;;;;;;;1.93;1.83;;;;;;;10.49;50.21;98694.50;10464323;28;20237;-69
2023/03/26 19:19:37;;;;;;;2.80;2.10;;;;;;;8.88;52.50;98703.47;10471166;28;20791;-72
2023/03/26 19:24:40;;;;;;;2.20;2.10;;;;;;;7.47;54.77;98532.09;10467407;28;20225;-73
2023/03/26 19:29:43;;;;;;;2.10;2.00;;;;;;;8.49;52.73;98657.72;10450812;28;20223;-72
2023/03/26 19:34:46;;;;;;;4.50;2.10;;;;;;;9.67;51.50;98684.09;10449501;28;20241;-72
2023/03/26 19:39:52;;;;;;;3.13;2.40;;;;;;;9.98;50.69;98682.69;10476606;28;20235;-78
2023/03/26 19:44:55;;;;;;;2.30;2.10;;;;;;;8.37;52.94;98685.94;10466488;28;20774;-68
2023/03/26 19:50:02;;;;;;;3.07;2.33;;;;;;;7.91;55.14;98639.34;10467916;28;20596;-72
2023/03/26 19:55:08;;;;;;;2.90;2.70;;;;;;;9.26;52.51;98674.41;10471864;28;20236;-72
2023/03/26 20:00:14;;;;;;;2.83;2.63;;;;;;;9.53;52.40;98685.13;10467042;28;20262;-71
2023/03/26 20:05:22;;;;;;;3.13;2.50;;;;;;;9.28;51.95;98687.53;10475007;28;20227;-74
2023/03/26 20:10:25;;;;;;;2.40;2.20;;;;;;;8.32;53.76;98667.91;10474128;28;20229;-68
2023/03/26 20:15:30;;;;;;;3.90;3.17;;;;;;;10.17;50.96;98672.16;10472359;28;20255;-72
2023/03/26 20:20:33;;;;;;;3.27;2.97;;;;;;;10.42;49.63;98673.13;10469352;28;20231;-72
2023/03/26 20:25:50;;;;;;;3.63;2.80;;;;;;;10.20;51.05;98687.78;10469473;28;20234;-73
2023/03/26 20:30:52;;;;;;;2.87;2.30;;;;;;;10.04;50.75;98681.84;10460657;28;20621;-73
2023/03/26 20:35:57;;;;;;;3.97;2.57;;;;;;;9.57;50.91;98692.53;10451977;28;20269;-72
2023/03/26 20:40:59;;;;;;;2.77;2.50;;;;;;;10.22;51.12;98694.56;10473315;28;20293;-72
2023/03/26 20:46:01;;;;;;;2.70;2.50;;;;;;;10.35;49.71;98711.63;10475019;28;20247;-72
2023/03/26 20:51:03;;;;;;;3.20;2.53;;;;;;;10.36;49.58;98708.75;10471152;28;20231;-73
2023/03/26 20:56:14;;;;;;;2.60;2.40;;;;;;;9.69;51.20;98715.97;10465479;28;20275;-72
2023/03/26 21:01:16;;;;;;;2.80;2.60;;;;;;;8.57;52.75;98675.38;10471366;28;20235;-72
2023/03/26 21:06:18;;;;;;;2.83;2.50;;;;;;;9.92;50.89;98719.06;10421556;28;20229;-72
2023/03/26 21:11:28;;;;;;;3.43;2.67;;;;;;;9.75;51.80;98765.88;10425584;28;20231;-71
2023/03/26 21:16:30;;;;;;;3.33;2.80;;;;;;;9.28;51.42;98730.25;10424592;28;20718;-72
2023/03/26 21:21:46;;;;;;;5.83;3.20;;;;;;;9.52;52.35;98784.97;10420420;28;20220;-72
2023/03/26 21:27:26;;;;;;;4.73;3.10;;;;;;;10.11;51.52;98767.38;10431062;28;20232;-72
2023/03/26 21:32:30;;;;;;;3.80;3.47;;;;;;;9.89;52.45;98782.81;10426298;28;20243;-72
2023/03/26 21:37:32;;;;;;;4.17;3.07;;;;;;;9.85;51.73;98770.88;10426843;28;20765;-72
2023/03/26 21:42:34;;;;;;;3.67;3.27;;;;;;;9.59;52.99;98777.78;10428004;28;20626;-72
2023/03/26 21:47:36;;;;;;;5.13;4.20;;;;;;;10.20;51.58;98776.84;10417517;28;20239;-73
2023/03/26 21:52:45;;;;;;;4.17;3.77;;;;;;;8.65;54.22;98761.38;10421928;28;20239;-72
2023/03/26 21:57:59;;;;;;;3.63;3.30;;;;;;;8.32;55.09;98721.22;10423070;28;20233;-72
2023/03/26 22:03:08;;;;;;;4.20;3.30;;;;;;;10.14;53.51;98793.69;10428306;28;20767;-73
2023/03/26 22:08:32;;;;;;;4.87;2.80;;;;;;;8.90;54.34;98803.63;10457473;28;20235;-71
2023/03/26 22:13:34;;;;;;;2.60;2.40;;;;;;;8.98;53.63;98810.66;10471489;28;20241;-72
2023/03/26 22:18:36;;;;;;;2.80;2.20;;;;;;;9.19;53.16;98813.19;10445484;28;20211;-72
2023/03/26 22:23:37;;;;;;;2.60;2.40;;;;;;;9.52;52.28;98801.81;10458322;28;20727;-72
2023/03/26 22:28:39;;;;;;;3.10;2.90;;;;;;;10.47;50.87;98857.88;10457366;28;20208;-72
2023/03/26 22:33:41;;;;;;;2.30;2.20;;;;;;;9.67;51.47;98848.88;10456811;28;20231;-73
2023/03/26 22:38:43;;;;;;;2.60;2.40;;;;;;;10.32;50.30;98886.66;10457545;28;20209;-72
2023/03/26 22:43:45;;;;;;;2.37;2.17;;;;;;;9.80;51.06;98883.66;10458392;28;20746;-73
2023/03/26 22:48:47;;;;;;;3.10;2.80;;;;;;;10.27;51.14;98921.22;10459952;28;20236;-73
2023/03/26 22:53:49;;;;;;;2.10;2.00;;;;;;;9.00;52.52;98910.00;10466357;28;20247;-73
2023/03/26 22:58:50;;;;;;;2.13;2.03;;;;;;;8.92;52.77;98918.97;10457274;28;20232;-73
2023/03/26 23:03:53;;;;;;;2.40;2.20;;;;;;;8.19;54.40;98873.84;10449866;28;20266;-73
2023/03/26 23:08:55;;;;;;;2.20;2.10;;;;;;;9.44;52.15;98940.03;10456698;28;20224;-73
2023/03/26 23:13:57;;;;;;;2.47;2.27;;;;;;;8.87;52.37;98957.94;10455465;28;20621;-72
2023/03/26 23:18:59;;;;;;;2.30;2.20;;;;;;;8.25;54.13;98925.56;10459419;28;20319;-73
2023/03/26 23:24:02;;;;;;;2.00;1.90;;;;;;;6.91;56.06;98779.44;10460773;28;20310;-73
2023/03/26 23:29:04;;;;;;;2.50;2.30;;;;;;;7.36;55.62;98882.13;10460945;28;20231;-72
2023/03/26 23:34:05;;;;;;;2.00;1.90;;;;;;;7.99;54.88;98966.91;10458239;28;20239;-73
2023/03/26 23:39:07;;;;;;;2.10;1.90;;;;;;;7.58;54.34;98924.78;10445374;28;20260;-73
2023/03/26 23:44:13;;;;;;;2.10;2.00;;;;;;;7.11;55.67;98894.91;10455412;28;20238;-73
2023/03/26 23:49:14;;;;;;;2.00;1.90;;;;;;;7.54;54.95;98963.44;10440988;28;20224;-73
2023/03/26 23:54:17;;;;;;;2.00;1.90;;;;;;;7.95;53.83;99021.56;10457157;28;20259;-73
2023/03/26 23:59:19;;;;;;;2.00;1.90;;;;;;;8.21;53.77;99065.56;10458638;28;20587;-72
